DAAF weather

Aoulef Airport
Aoulef, Adrar Province, Algeria

Public forecast

Using degrees Celsius for public forecast. Weather courtesy of forecast.io.

METAR (pilot weather report)

Closest report is In Salah Airport, 75.7 nm (140.2 km) E. Retrieved 2019/07/22 07:00 UTC (19 minutes ago):

DAUI 220700Z 07021KT 6000 DRSA NSC 35/M00 Q1013

TAF (pilot weather forecast)

Forecast is more than 12 hours old.

Closest forecast is In Salah Airport, 75.7 nm (140.2 km) E. Retrieved 2019/07/21 00:33 UTC (1 day ago):

TAF DAUI 212300Z 2200/2224 04012KT 8000 NSC PROB30 TEMPO 2200/2206 4000 HZ PROB40 TEMPO 2206/2211 08022KT 4000 DRSA